Time;durP1;ratioP1;P1;durP2;ratioP2;P2;SDS_P1;SDS_P2;PMS_P1;PMS_P2;Temp;Humidity;BMP_temperature;BMP_pressure;BME280_temperature;BME280_humidity;BME280_pressure;Samples;Min_cycle;Max_cycle;Signal;HPM_P1;HPM_P2
2023/03/24 00:01:18;;;;;;;5.50;2.30;;;12.60;99.50;;;;;;5074962;28;20025;-72
2023/03/24 00:03:44;;;;;;;6.45;2.15;;;12.70;99.40;;;;;;5074947;28;20021;-72
2023/03/24 00:06:12;;;;;;;5.25;2.20;;;12.70;99.50;;;;;;5074903;28;20023;-72
2023/03/24 00:08:40;;;;;;;3.47;1.27;;;12.70;99.50;;;;;;5074864;28;20027;-72
2023/03/24 00:11:10;;;;;;;5.05;1.83;;;12.70;99.40;;;;;;5074814;28;20051;-72
2023/03/24 00:13:37;;;;;;;4.03;2.05;;;12.70;99.80;;;;;;5074936;28;20054;-71
2023/03/24 00:16:15;;;;;;;3.00;1.98;;;12.70;99.70;;;;;;5074703;28;20051;-72
2023/03/24 00:18:41;;;;;;;3.88;2.08;;;12.70;99.70;;;;;;5073590;28;20029;-72
2023/03/24 00:21:07;;;;;;;5.25;2.03;;;12.70;99.80;;;;;;5074586;28;20047;-71
2023/03/24 00:23:34;;;;;;;3.35;1.70;;;12.70;99.80;;;;;;5074615;28;20017;-71
2023/03/24 00:26:06;;;;;;;4.60;2.10;;;12.70;99.90;;;;;;5074408;28;20545;-71
2023/03/24 00:28:33;;;;;;;6.18;2.25;;;12.70;99.90;;;;;;5073428;28;20088;-71
2023/03/24 00:31:00;;;;;;;4.95;1.80;;;12.70;99.90;;;;;;5074341;28;20140;-71
2023/03/24 00:33:30;;;;;;;3.95;2.33;;;12.70;99.90;;;;;;5073259;28;20022;-71
2023/03/24 00:35:57;;;;;;;4.07;1.88;;;12.70;99.90;;;;;;5074326;28;20033;-71
2023/03/24 00:38:23;;;;;;;5.60;2.00;;;12.70;99.90;;;;;;5074192;28;20021;-72
2023/03/24 00:40:50;;;;;;;4.72;2.40;;;12.80;99.90;;;;;;5074190;28;20056;-71
2023/03/24 00:43:16;;;;;;;6.47;2.75;;;12.80;99.90;;;;;;5073299;28;20056;-72
2023/03/24 00:45:44;;;;;;;3.13;1.92;;;12.80;99.90;;;;;;5074253;28;20051;-72
2023/03/24 00:48:14;;;;;;;4.72;2.33;;;12.80;99.90;;;;;;5072855;28;20017;-72
2023/03/24 00:50:45;;;;;;;5.07;2.38;;;12.80;99.90;;;;;;5072974;28;20029;-71
2023/03/24 00:53:14;;;;;;;7.13;2.70;;;12.80;99.90;;;;;;5074040;28;20021;-71
2023/03/24 00:55:40;;;;;;;3.65;2.15;;;12.80;99.90;;;;;;5056661;28;20032;-71
2023/03/24 00:58:06;;;;;;;4.78;2.45;;;12.80;99.90;;;;;;5072911;28;20049;-72
2023/03/24 01:00:32;;;;;;;4.28;2.42;;;12.90;99.90;;;;;;5073843;28;20055;-72
2023/03/24 01:02:58;;;;;;;4.68;2.00;;;12.90;99.90;;;;;;5073796;28;20093;-71
2023/03/24 01:05:26;;;;;;;2.28;1.50;;;12.90;99.90;;;;;;5073776;28;20023;-71
2023/03/24 01:07:55;;;;;;;2.88;1.70;;;12.90;99.90;;;;;;5073729;28;20470;-73
2023/03/24 01:10:28;;;;;;;3.53;1.77;;;13.00;99.90;;;;;;5073844;28;20032;-71
2023/03/24 01:12:57;;;;;;;3.33;1.83;;;13.00;99.90;;;;;;5073688;28;20017;-72
2023/03/24 01:15:25;;;;;;;4.60;2.28;;;13.00;99.70;;;;;;5073600;28;20100;-71
2023/03/24 01:17:53;;;;;;;3.58;1.92;;;13.10;99.80;;;;;;5073716;28;20049;-71
2023/03/24 01:20:21;;;;;;;3.97;2.15;;;13.10;99.80;;;;;;5073452;28;20014;-71
2023/03/24 01:22:47;;;;;;;5.68;1.80;;;13.10;99.80;;;;;;5072522;28;20082;-71
2023/03/24 01:25:19;;;;;;;3.45;1.90;;;13.10;99.80;;;;;;5073483;28;20025;-72
2023/03/24 01:27:46;;;;;;;3.38;1.75;;;13.10;99.90;;;;;;5072342;28;20024;-72
2023/03/24 01:30:15;;;;;;;4.22;2.00;;;13.00;99.90;;;;;;5073288;28;20039;-71
2023/03/24 01:32:41;;;;;;;5.38;1.88;;;13.10;99.90;;;;;;5073205;28;20053;-72
2023/03/24 01:35:07;;;;;;;5.45;2.03;;;13.00;99.90;;;;;;5073296;28;20051;-72
2023/03/24 01:37:33;;;;;;;2.03;1.55;;;13.00;99.90;;;;;;5055653;28;20032;-71
2023/03/24 01:39:59;;;;;;;3.70;1.80;;;13.00;99.90;;;;;;5073150;28;20025;-72
2023/03/24 01:42:27;;;;;;;4.65;2.13;;;13.00;99.90;;;;;;5073226;28;20041;-71
2023/03/24 01:45:20;;;;;;;3.15;2.00;;;13.00;99.90;;;;;;5072275;28;20055;-72
2023/03/24 01:47:46;;;;;;;3.45;1.92;;;13.00;99.90;;;;;;5073046;28;20039;-72
2023/03/24 01:50:13;;;;;;;2.45;1.42;;;13.00;99.90;;;;;;5073188;28;20033;-71
2023/03/24 01:52:41;;;;;;;4.18;2.00;;;13.00;99.90;;;;;;5073118;28;20029;-71
2023/03/24 01:55:14;;;;;;;5.20;2.67;;;12.90;99.90;;;;;;5073113;28;20021;-71
2023/03/24 01:57:48;;;;;;;2.72;1.83;;;12.90;99.90;;;;;;5073104;28;20029;-72
2023/03/24 02:00:17;;;;;;;5.57;1.67;;;12.90;99.90;;;;;;5075978;28;20029;-71
2023/03/24 02:02:53;;;;;;;4.82;2.40;;;12.90;99.90;;;;;;5077358;28;20375;-72
2023/03/24 02:05:22;;;;;;;3.35;1.73;;;13.00;99.90;;;;;;5076224;28;20134;-71
2023/03/24 02:07:56;;;;;;;2.83;1.33;;;13.00;99.90;;;;;;5077099;28;20024;-72
2023/03/24 02:10:23;;;;;;;3.45;2.08;;;12.90;99.90;;;;;;5077155;28;20029;-72
2023/03/24 02:12:48;;;;;;;3.67;1.65;;;12.90;99.90;;;;;;5076132;28;20045;-71
2023/03/24 02:15:16;;;;;;;3.05;1.65;;;12.90;99.90;;;;;;5076277;28;20051;-71
2023/03/24 02:18:17;;;;;;;2.70;1.42;;;12.90;99.90;;;;;;5076936;28;20027;-72
2023/03/24 02:21:07;;;;;;;4.20;1.83;;;12.90;99.90;;;;;;5076918;28;20033;-71
2023/03/24 02:23:48;;;;;;;2.22;1.42;;;12.90;99.90;;;;;;5076854;28;20036;-72
2023/03/24 02:26:36;;;;;;;3.35;1.90;;;12.90;99.90;;;;;;5076868;28;20029;-71
2023/03/24 02:29:44;;;;;;;2.67;1.73;;;13.00;99.90;;;;;;5076756;28;20040;-71
2023/03/24 02:32:43;;;;;;;2.67;1.40;;;12.90;99.90;;;;;;5076416;28;20095;-71
2023/03/24 02:35:31;;;;;;;2.85;1.67;;;12.90;99.90;;;;;;5076773;28;20089;-71
2023/03/24 02:38:21;;;;;;;3.55;1.95;;;12.90;99.90;;;;;;5076781;28;20056;-72
2023/03/24 02:41:02;;;;;;;3.17;1.98;;;12.90;99.90;;;;;;5076655;28;20029;-71
2023/03/24 02:43:46;;;;;;;4.00;2.35;;;12.90;99.90;;;;;;5076549;28;20100;-71
2023/03/24 02:46:21;;;;;;;3.55;2.13;;;13.00;99.90;;;;;;5075365;28;20029;-72
2023/03/24 02:49:01;;;;;;;4.03;2.15;;;12.90;99.90;;;;;;5076480;28;20080;-72
2023/03/24 02:51:49;;;;;;;4.05;2.08;;;12.90;99.90;;;;;;5076477;28;20028;-71
2023/03/24 02:54:28;;;;;;;4.38;2.00;;;13.00;99.90;;;;;;5037042;28;20037;-71
2023/03/24 02:57:20;;;;;;;3.05;2.03;;;12.90;99.90;;;;;;5076263;28;20036;-72
2023/03/24 02:59:53;;;;;;;5.55;1.95;;;12.90;99.90;;;;;;5076172;28;20028;-72
2023/03/24 03:02:43;;;;;;;4.95;2.67;;;13.00;99.90;;;;;;5076169;28;20076;-72
2023/03/24 03:05:22;;;;;;;3.58;2.13;;;13.00;99.90;;;;;;5075122;28;20024;-71
2023/03/24 03:07:50;;;;;;;3.47;2.35;;;13.00;99.90;;;;;;5076008;28;20025;-72
2023/03/24 03:10:28;;;;;;;4.20;2.33;;;13.00;99.90;;;;;;5075913;28;20041;-72
2023/03/24 03:12:57;;;;;;;3.90;2.58;;;13.00;99.90;;;;;;5075951;28;20032;-73
2023/03/24 03:15:28;;;;;;;6.45;2.38;;;13.10;99.90;;;;;;5075915;28;20032;-73
2023/03/24 03:18:40;;;;;;;4.75;2.80;;;13.10;99.90;;;;;;5074838;28;20032;-72
2023/03/24 03:21:11;;;;;;;3.20;2.38;;;13.10;99.90;;;;;;5061591;28;20128;-71
2023/03/24 03:24:11;;;;;;;4.95;2.30;;;13.10;99.90;;;;;;5074883;28;20040;-72
2023/03/24 03:26:37;;;;;;;3.60;2.10;;;13.10;99.90;;;;;;5031414;28;20478;-72
2023/03/24 03:29:09;;;;;;;3.58;2.53;;;13.10;99.90;;;;;;5075617;28;20053;-72
2023/03/24 03:31:40;;;;;;;;;;;13.20;99.90;;;;;;5074858;28;20053;-72
2023/03/24 03:34:28;;;;;;;3.95;2.50;;;13.20;99.90;;;;;;5075604;28;19944;-71
2023/03/24 03:37:05;;;;;;;3.75;2.35;;;13.20;99.90;;;;;;5075340;28;20067;-72
2023/03/24 03:39:35;;;;;;;2.90;1.40;;;13.30;99.90;;;;;;5075381;28;20035;-72
2023/03/24 03:42:02;;;;;;;2.75;1.60;;;13.30;98.50;;;;;;5075402;28;20025;-73
2023/03/24 03:44:30;;;;;;;1.98;1.00;;;13.30;98.10;;;;;;5074370;28;20029;-73
2023/03/24 03:46:56;;;;;;;3.45;0.98;;;13.30;98.00;;;;;;5075277;28;20072;-72
2023/03/24 03:49:22;;;;;;;0.60;0.40;;;13.20;96.50;;;;;;5075154;28;20023;-72
2023/03/24 03:51:48;;;;;;;2.38;0.73;;;13.20;93.90;;;;;;5075187;28;20040;-73
2023/03/24 03:54:15;;;;;;;1.65;0.40;;;13.10;93.10;;;;;;5075163;28;20021;-72
2023/03/24 03:56:41;;;;;;;1.75;0.60;;;13.00;93.30;;;;;;5074174;28;20032;-73
2023/03/24 03:59:21;;;;;;;1.55;0.50;;;12.90;93.10;;;;;;5075014;28;20504;-72
2023/03/24 04:01:47;;;;;;;2.00;0.80;;;12.80;93.00;;;;;;5074082;28;20017;-73
2023/03/24 04:04:36;;;;;;;2.10;0.98;;;12.70;92.80;;;;;;5074027;28;20036;-72
2023/03/24 04:07:22;;;;;;;2.60;0.90;;;12.70;93.00;;;;;;5074993;28;20452;-72
2023/03/24 04:10:07;;;;;;;3.35;1.40;;;12.60;93.10;;;;;;5074923;28;20017;-73
2023/03/24 04:12:42;;;;;;;3.67;1.30;;;12.50;93.00;;;;;;5073867;28;20029;-72
2023/03/24 04:15:39;;;;;;;4.47;1.73;;;12.50;93.80;;;;;;5074876;28;20522;-72
2023/03/24 04:18:22;;;;;;;3.90;1.45;;;12.40;93.20;;;;;;5005423;28;20041;-73
2023/03/24 04:21:08;;;;;;;4.07;1.50;;;12.40;93.40;;;;;;5074619;28;20025;-73
2023/03/24 04:23:53;;;;;;;4.65;1.90;;;12.40;93.60;;;;;;5074191;28;20017;-72
2023/03/24 04:26:40;;;;;;;3.88;1.90;;;12.30;93.50;;;;;;5073516;28;20032;-72
2023/03/24 04:29:32;;;;;;;5.35;2.00;;;12.30;93.70;;;;;;5074667;28;20029;-72
2023/03/24 04:32:13;;;;;;;3.85;1.60;;;12.20;93.80;;;;;;5074335;28;20045;-73
2023/03/24 04:34:45;;;;;;;4.53;1.75;;;12.10;93.80;;;;;;5074355;28;20025;-72
2023/03/24 04:37:15;;;;;;;7.22;2.55;;;12.10;93.70;;;;;;5073373;28;20025;-73
2023/03/24 04:39:44;;;;;;;3.15;2.00;;;12.10;93.70;;;;;;5074242;28;20025;-72
2023/03/24 04:42:19;;;;;;;4.90;2.45;;;12.10;93.10;;;;;;5074219;28;20025;-72
2023/03/24 04:44:50;;;;;;;4.38;2.72;;;12.10;92.80;;;;;;5074221;28;20024;-73
2023/03/24 04:47:18;;;;;;;8.45;2.90;;;12.10;92.60;;;;;;5074151;28;20021;-72
2023/03/24 04:49:44;;;;;;;6.38;2.30;;;12.10;92.40;;;;;;5074063;28;20029;-72
2023/03/24 04:52:10;;;;;;;8.43;3.20;;;12.10;92.40;;;;;;5074008;28;20029;-73
2023/03/24 04:54:35;;;;;;;4.03;1.85;;;12.10;92.50;;;;;;5073970;28;20037;-71
2023/03/24 04:57:01;;;;;;;6.68;2.38;;;12.10;92.00;;;;;;5073911;28;20104;-72
2023/03/24 04:59:33;;;;;;;4.18;2.00;;;12.00;92.10;;;;;;5073782;28;20021;-72
2023/03/24 05:01:59;;;;;;;6.82;1.80;;;12.10;92.00;;;;;;5073846;28;20032;-73
2023/03/24 05:04:27;;;;;;;6.50;1.95;;;12.10;91.80;;;;;;5056186;28;20025;-72
2023/03/24 05:06:52;;;;;;;6.60;2.47;;;12.00;91.80;;;;;;5073786;28;20017;-72
2023/03/24 05:09:20;;;;;;;4.35;1.98;;;12.00;91.60;;;;;;5073715;28;20029;-72
2023/03/24 05:11:46;;;;;;;6.38;1.90;;;12.00;91.90;;;;;;5073691;28;20036;-72
2023/03/24 05:14:12;;;;;;;5.22;1.92;;;12.00;92.10;;;;;;5073655;28;20025;-72
2023/03/24 05:16:38;;;;;;;6.70;2.47;;;11.90;92.20;;;;;;5073599;28;20036;-72
2023/03/24 05:19:04;;;;;;;6.50;2.08;;;11.90;92.20;;;;;;5073586;28;20037;-71
2023/03/24 05:21:30;;;;;;;6.45;2.10;;;11.90;92.50;;;;;;5073501;28;20024;-73
2023/03/24 05:23:56;;;;;;;6.25;1.73;;;11.90;92.50;;;;;;5073485;28;20029;-73
2023/03/24 05:26:22;;;;;;;6.03;2.00;;;11.80;92.50;;;;;;5072418;28;20036;-72
2023/03/24 05:28:47;;;;;;;4.40;1.45;;;11.80;92.50;;;;;;5073404;28;20029;-72
2023/03/24 05:31:13;;;;;;;5.07;1.40;;;11.70;92.60;;;;;;5073176;28;20072;-72
2023/03/24 05:33:39;;;;;;;6.07;1.75;;;11.80;92.60;;;;;;5072481;28;20040;-72
2023/03/24 05:36:06;;;;;;;4.38;1.50;;;11.70;92.60;;;;;;5073326;28;20045;-73
2023/03/24 05:38:32;;;;;;;4.63;1.40;;;11.60;92.50;;;;;;5073212;28;20029;-72
2023/03/24 05:40:59;;;;;;;4.53;1.40;;;11.60;92.70;;;;;;5073184;28;20033;-72
2023/03/24 05:43:25;;;;;;;6.90;1.30;;;11.60;92.70;;;;;;5073181;28;20021;-72
2023/03/24 05:45:51;;;;;;;6.60;1.65;;;11.50;92.80;;;;;;5072192;28;20566;-73
2023/03/24 05:48:16;;;;;;;5.13;2.25;;;11.50;92.70;;;;;;5072227;28;20025;-73
2023/03/24 05:50:42;;;;;;;4.43;1.70;;;11.50;92.90;;;;;;5072184;28;20036;-72
2023/03/24 05:53:07;;;;;;;6.35;2.10;;;11.50;92.90;;;;;;5072072;28;20033;-73
2023/03/24 05:55:34;;;;;;;6.90;1.80;;;11.40;92.90;;;;;;5072123;28;20036;-72
2023/03/24 05:58:00;;;;;;;6.35;1.80;;;11.40;93.00;;;;;;5073014;28;20025;-72
2023/03/24 06:00:29;;;;;;;7.40;2.10;;;11.40;93.00;;;;;;5071945;28;20032;-72
2023/03/24 06:02:55;;;;;;;5.45;2.20;;;11.40;92.90;;;;;;5073054;28;20032;-73
2023/03/24 06:05:21;;;;;;;4.93;2.28;;;11.40;93.00;;;;;;5072034;28;20049;-73
2023/03/24 06:07:46;;;;;;;5.80;1.88;;;11.30;93.20;;;;;;5072974;28;20036;-72
2023/03/24 06:10:16;;;;;;;6.55;1.83;;;11.30;93.20;;;;;;5072920;28;20093;-73
2023/03/24 06:12:43;;;;;;;7.28;2.00;;;11.30;93.30;;;;;;5071966;28;20025;-72
2023/03/24 06:15:09;;;;;;;6.10;1.90;;;11.30;93.30;;;;;;5072920;28;20037;-72
2023/03/24 06:17:36;;;;;;;7.38;1.50;;;11.30;93.00;;;;;;5072850;28;20111;-72
2023/03/24 06:20:14;;;;;;;6.00;1.88;;;11.30;93.30;;;;;;5072756;28;20058;-72
2023/03/24 06:22:41;;;;;;;7.22;2.10;;;11.30;93.20;;;;;;5071885;28;20103;-73
2023/03/24 06:25:08;;;;;;;4.40;1.80;;;11.30;93.10;;;;;;5071748;28;20031;-73
2023/03/24 06:27:34;;;;;;;8.15;1.65;;;11.40;93.30;;;;;;5071778;28;20013;-72
2023/03/24 06:30:00;;;;;;;6.45;1.92;;;11.40;92.90;;;;;;5072797;28;20025;-73
2023/03/24 06:32:26;;;;;;;5.00;1.30;;;11.40;92.90;;;;;;5072505;28;20079;-72
2023/03/24 06:34:52;;;;;;;3.72;1.50;;;11.40;92.80;;;;;;5071792;28;20089;-73
2023/03/24 06:37:19;;;;;;;5.93;1.77;;;11.40;92.90;;;;;;5072681;28;20025;-72
2023/03/24 06:39:45;;;;;;;3.75;1.23;;;11.50;92.70;;;;;;5071713;28;20084;-72
2023/03/24 06:42:11;;;;;;;4.95;1.50;;;11.40;92.80;;;;;;5071735;28;20048;-72
2023/03/24 06:44:37;;;;;;;6.55;1.30;;;11.50;92.60;;;;;;5072875;28;20028;-72
2023/03/24 06:47:03;;;;;;;4.72;1.30;;;11.50;92.40;;;;;;5076420;28;20025;-72
2023/03/24 06:49:29;;;;;;;5.22;1.38;;;11.50;92.50;;;;;;5076267;28;20036;-72
2023/03/24 06:51:55;;;;;;;5.00;1.67;;;11.50;92.60;;;;;;5075265;28;20025;-72
2023/03/24 06:54:21;;;;;;;4.82;1.20;;;11.60;92.40;;;;;;5076453;28;20056;-72
2023/03/24 06:56:47;;;;;;;5.18;1.60;;;11.60;92.20;;;;;;5075338;28;20025;-72
2023/03/24 06:59:12;;;;;;;4.15;1.30;;;11.70;92.20;;;;;;5076290;28;20036;-72
2023/03/24 07:01:38;;;;;;;4.88;1.10;;;11.60;92.20;;;;;;5076128;28;20025;-72
2023/03/24 07:04:05;;;;;;;10.90;1.75;;;11.70;92.10;;;;;;5076110;28;20044;-72
2023/03/24 07:06:32;;;;;;;8.20;1.65;;;11.60;91.90;;;;;;5076122;28;20045;-72
2023/03/24 07:08:58;;;;;;;3.03;1.00;;;11.70;91.90;;;;;;5076056;28;20040;-72
2023/03/24 07:11:24;;;;;;;4.82;1.15;;;11.70;92.10;;;;;;5076085;28;20028;-72
2023/03/24 07:13:49;;;;;;;7.45;1.40;;;11.80;91.90;;;;;;5041836;28;20107;-72
2023/03/24 07:16:15;;;;;;;6.70;1.35;;;11.80;91.90;;;;;;5075885;28;20055;-72
2023/03/24 07:18:41;;;;;;;5.57;1.27;;;11.80;91.70;;;;;;5074779;28;20029;-73
2023/03/24 07:21:07;;;;;;;6.53;2.15;;;11.90;91.80;;;;;;5075754;28;20033;-73
2023/03/24 07:23:33;;;;;;;9.07;1.77;;;11.90;91.70;;;;;;5075759;28;20009;-72
2023/03/24 07:25:59;;;;;;;7.03;1.60;;;12.00;91.60;;;;;;5075587;28;20029;-72
2023/03/24 07:28:25;;;;;;;4.40;1.30;;;12.00;91.40;;;;;;5074626;28;20088;-73
2023/03/24 07:30:51;;;;;;;6.22;1.40;;;12.00;91.50;;;;;;5075410;28;20151;-72
2023/03/24 07:33:17;;;;;;;7.13;2.05;;;12.10;91.60;;;;;;5075566;28;20029;-72
2023/03/24 07:35:42;;;;;;;6.57;1.50;;;12.10;91.30;;;;;;5075516;28;20089;-73
2023/03/24 07:38:09;;;;;;;8.27;1.52;;;12.20;91.30;;;;;;5075439;28;20021;-73
2023/03/24 07:40:35;;;;;;;6.65;1.05;;;12.20;91.40;;;;;;5075356;28;20052;-73
2023/03/24 07:43:05;;;;;;;3.80;1.23;;;12.20;90.80;;;;;;5075353;28;20064;-73
2023/03/24 07:45:31;;;;;;;7.35;1.75;;;12.20;91.10;;;;;;5075484;28;20021;-72
2023/03/24 07:48:00;;;;;;;5.20;1.52;;;12.30;91.10;;;;;;5075244;28;20021;-73
2023/03/24 07:50:27;;;;;;;7.13;1.98;;;12.40;91.30;;;;;;5075222;28;20031;-72
2023/03/24 07:52:53;;;;;;;3.45;1.25;;;12.40;91.00;;;;;;5075212;28;20040;-72
2023/03/24 07:55:18;;;;;;;6.88;1.65;;;12.40;91.00;;;;;;5074201;28;20025;-73
2023/03/24 07:57:48;;;;;;;5.32;1.35;;;12.40;90.70;;;;;;5074139;28;20033;-72
2023/03/24 08:00:19;;;;;;;9.68;1.25;;;12.50;90.40;;;;;;5074972;28;20037;-72
2023/03/24 08:02:48;;;;;;;3.30;0.85;;;12.50;90.70;;;;;;5075063;28;20021;-71
2023/03/24 08:05:14;;;;;;;9.10;1.60;;;12.60;90.40;;;;;;5074988;28;20027;-73
2023/03/24 08:07:44;;;;;;;7.63;1.25;;;12.60;90.60;;;;;;5074097;28;20056;-73
2023/03/24 08:10:11;;;;;;;5.70;1.20;;;12.70;90.60;;;;;;5074880;28;20025;-73
2023/03/24 08:12:37;;;;;;;7.82;1.60;;;12.80;90.30;;;;;;5073889;28;20037;-73
2023/03/24 08:15:04;;;;;;;8.60;1.75;;;12.80;90.40;;;;;;5057305;28;20040;-72
2023/03/24 08:17:31;;;;;;;5.45;1.65;;;12.90;90.00;;;;;;5073747;28;20052;-73
2023/03/24 08:19:56;;;;;;;6.80;1.52;;;12.90;90.10;;;;;;5074598;28;20085;-73
2023/03/24 08:22:22;;;;;;;7.85;1.70;;;12.90;89.90;;;;;;5073680;28;20036;-72
2023/03/24 08:24:48;;;;;;;5.20;1.30;;;13.00;89.40;;;;;;5074582;28;20076;-72
2023/03/24 08:27:13;;;;;;;7.78;1.48;;;13.00;88.90;;;;;;5073602;28;20051;-72
2023/03/24 08:29:39;;;;;;;7.65;1.80;;;12.90;89.60;;;;;;5074498;28;20033;-73
2023/03/24 08:32:04;;;;;;;6.80;1.60;;;13.00;89.30;;;;;;5073365;28;20060;-71
2023/03/24 08:34:30;;;;;;;5.72;1.35;;;13.00;89.20;;;;;;5073438;28;20032;-73
2023/03/24 08:36:56;;;;;;;5.32;1.75;;;13.10;88.80;;;;;;5073310;28;20041;-72
2023/03/24 08:39:23;;;;;;;6.28;1.65;;;13.20;89.50;;;;;;5074205;28;20052;-73
2023/03/24 08:41:49;;;;;;;7.07;1.35;;;13.20;89.00;;;;;;5073368;28;20081;-72
2023/03/24 08:44:15;;;;;;;5.15;1.50;;;13.20;89.60;;;;;;5074215;28;20013;-73
2023/03/24 08:46:41;;;;;;;6.78;1.50;;;13.20;89.40;;;;;;5074150;28;20020;-73
2023/03/24 08:49:07;;;;;;;7.93;1.92;;;13.10;87.30;;;;;;5073157;28;20055;-73
2023/03/24 08:51:33;;;;;;;5.35;1.75;;;13.10;89.10;;;;;;5074052;28;20623;-74
2023/03/24 08:54:00;;;;;;;6.72;1.60;;;13.20;88.40;;;;;;5072979;28;20037;-73
2023/03/24 08:56:26;;;;;;;9.45;2.25;;;13.40;89.20;;;;;;5073999;28;20021;-72
2023/03/24 08:58:52;;;;;;;5.75;1.98;;;13.40;86.90;;;;;;5072864;28;20036;-73
2023/03/24 09:01:19;;;;;;;7.38;1.67;;;13.40;86.90;;;;;;5073895;28;20021;-73
2023/03/24 09:03:45;;;;;;;4.13;1.33;;;13.50;87.60;;;;;;5073853;28;20021;-73
2023/03/24 09:06:12;;;;;;;10.30;1.63;;;13.60;85.20;;;;;;5073778;28;20029;-73
2023/03/24 09:08:37;;;;;;;7.03;1.67;;;13.60;85.70;;;;;;5056158;28;20041;-73
2023/03/24 09:11:04;;;;;;;6.10;1.83;;;13.70;85.80;;;;;;5073708;28;20378;-73
2023/03/24 09:13:29;;;;;;;6.60;1.40;;;13.70;85.80;;;;;;5072688;28;20565;-72
2023/03/24 09:16:01;;;;;;;8.50;1.90;;;13.80;84.90;;;;;;5073572;28;20036;-73
2023/03/24 09:18:27;;;;;;;5.45;1.20;;;13.70;84.90;;;;;;5073399;28;20046;-73
2023/03/24 09:20:53;;;;;;;4.30;1.38;;;13.80;85.00;;;;;;5073526;28;20025;-74
2023/03/24 09:23:20;;;;;;;5.85;1.85;;;13.70;83.10;;;;;;5073497;28;20044;-72
2023/03/24 09:25:52;;;;;;;3.75;1.15;;;13.70;84.90;;;;;;5073451;28;20009;-74
2023/03/24 09:28:18;;;;;;;8.95;1.50;;;13.70;84.60;;;;;;5073498;28;20066;-74
2023/03/24 09:30:44;;;;;;;8.45;2.20;;;13.60;84.30;;;;;;5073254;28;20028;-74
2023/03/24 09:33:10;;;;;;;8.18;1.30;;;13.60;84.80;;;;;;5073235;28;20048;-73
2023/03/24 09:35:35;;;;;;;5.88;1.42;;;13.60;85.50;;;;;;5072355;28;20041;-74
2023/03/24 09:38:01;;;;;;;6.85;1.52;;;13.60;84.80;;;;;;5073276;28;20033;-73
2023/03/24 09:40:30;;;;;;;7.88;1.77;;;13.60;85.50;;;;;;5073179;28;20052;-73
2023/03/24 09:43:01;;;;;;;6.53;2.28;;;13.50;84.50;;;;;;5073253;28;20025;-73
2023/03/24 09:45:31;;;;;;;8.25;1.85;;;13.50;85.10;;;;;;5073293;28;20021;-73
2023/03/24 09:48:10;;;;;;;3.25;1.50;;;13.50;85.40;;;;;;5073060;28;20017;-72
2023/03/24 09:50:39;;;;;;;8.18;2.10;;;13.50;84.60;;;;;;5073202;28;20040;-73
2023/03/24 09:53:33;;;;;;;4.03;1.40;;;13.60;85.00;;;;;;5072126;28;20066;-73
2023/03/24 09:56:08;;;;;;;6.95;2.33;;;13.60;84.30;;;;;;5073242;28;20032;-73
2023/03/24 09:58:35;;;;;;;7.65;2.10;;;13.60;84.30;;;;;;5073037;28;20025;-73
2023/03/24 10:01:00;;;;;;;6.50;2.33;;;13.50;83.70;;;;;;5072957;28;20021;-72
2023/03/24 10:03:26;;;;;;;6.25;2.15;;;13.50;84.00;;;;;;5073022;28;20033;-74
2023/03/24 10:06:08;;;;;;;5.63;1.50;;;13.30;84.60;;;;;;5072969;28;20025;-73
2023/03/24 10:08:45;;;;;;;6.30;2.17;;;13.30;85.90;;;;;;5072025;28;20084;-73
2023/03/24 10:11:30;;;;;;;4.47;1.90;;;13.30;88.40;;;;;;5072051;28;20085;-74
2023/03/24 10:14:27;;;;;;;8.80;2.10;;;13.20;90.00;;;;;;5073068;28;20017;-73
2023/03/24 10:17:19;;;;;;;8.52;2.05;;;13.20;90.60;;;;;;5073100;28;20021;-73
2023/03/24 10:20:08;;;;;;;5.57;2.30;;;13.40;91.40;;;;;;5073366;28;20056;-73
2023/03/24 10:22:48;;;;;;;4.93;1.83;;;13.50;91.00;;;;;;5076910;28;20278;-73
2023/03/24 10:25:46;;;;;;;10.75;2.38;;;13.60;89.00;;;;;;5076956;28;20028;-73
2023/03/24 10:28:31;;;;;;;5.05;1.88;;;13.60;89.40;;;;;;5005483;28;20237;-73
2023/03/24 10:31:01;;;;;;;8.50;2.25;;;13.60;89.30;;;;;;5076769;28;20013;-74
2023/03/24 10:33:28;;;;;;;7.55;2.20;;;13.70;89.70;;;;;;5076759;28;20031;-73
2023/03/24 10:36:08;;;;;;;5.78;1.48;;;13.80;90.00;;;;;;5076671;28;20089;-73
2023/03/24 10:38:34;;;;;;;8.48;2.45;;;13.80;85.30;;;;;;5076579;28;20028;-74
2023/03/24 10:41:01;;;;;;;5.95;2.05;;;13.70;84.90;;;;;;5075694;28;20021;-74
2023/03/24 10:43:28;;;;;;;7.45;2.10;;;13.60;84.40;;;;;;5076482;28;20032;-73
2023/03/24 10:45:56;;;;;;;8.30;1.85;;;13.60;85.00;;;;;;5076468;28;20055;-73
2023/03/24 10:48:39;;;;;;;4.50;2.13;;;13.70;85.20;;;;;;5075400;28;20033;-74
2023/03/24 10:51:06;;;;;;;4.75;1.63;;;13.80;85.60;;;;;;5075398;28;20028;-73
2023/03/24 10:53:33;;;;;;;4.03;1.95;;;13.80;85.20;;;;;;5076361;28;20021;-74
2023/03/24 10:55:58;;;;;;;4.82;1.63;;;13.80;86.20;;;;;;5076254;28;20021;-74
2023/03/24 10:58:36;;;;;;;7.55;1.80;;;13.90;85.80;;;;;;5076237;28;20411;-73
2023/03/24 11:01:08;;;;;;;8.27;1.95;;;13.90;85.40;;;;;;5076366;28;20029;-74
2023/03/24 11:03:36;;;;;;;3.38;1.40;;;13.90;84.60;;;;;;5075029;28;20029;-75
2023/03/24 11:06:03;;;;;;;5.13;1.75;;;13.80;84.60;;;;;;5076225;28;20031;-73
2023/03/24 11:08:38;;;;;;;4.82;1.52;;;13.80;85.80;;;;;;5075983;28;20052;-74
2023/03/24 11:11:33;;;;;;;3.72;1.45;;;13.90;83.10;;;;;;5076037;28;20036;-73
2023/03/24 11:14:01;;;;;;;3.95;1.45;;;14.10;84.90;;;;;;5059084;28;20029;-74
2023/03/24 11:16:41;;;;;;;6.43;1.75;;;14.20;83.90;;;;;;5075911;28;20047;-73
2023/03/24 11:19:18;;;;;;;6.15;1.35;;;14.20;82.40;;;;;;5075924;28;20025;-73
2023/03/24 11:21:45;;;;;;;4.53;1.55;;;14.30;82.10;;;;;;5075833;28;20021;-74
2023/03/24 11:24:17;;;;;;;5.45;1.60;;;14.30;81.40;;;;;;5074741;28;20024;-74
2023/03/24 11:27:01;;;;;;;3.97;1.67;;;14.20;80.70;;;;;;5075680;28;20032;-74
2023/03/24 11:29:29;;;;;;;6.40;2.00;;;14.20;80.50;;;;;;5075675;28;20040;-74
2023/03/24 11:32:00;;;;;;;4.45;1.42;;;14.20;79.80;;;;;;5074103;28;20052;-73
2023/03/24 11:34:33;;;;;;;6.13;1.40;;;14.20;80.60;;;;;;5075580;28;20505;-72
2023/03/24 11:37:10;;;;;;;5.57;1.58;;;14.30;79.80;;;;;;5075485;28;20092;-73
2023/03/24 11:39:36;;;;;;;4.57;1.65;;;14.30;80.70;;;;;;5075444;28;20020;-72
2023/03/24 11:42:11;;;;;;;7.78;1.70;;;14.30;79.20;;;;;;5075290;28;20068;-73
2023/03/24 11:44:36;;;;;;;4.55;1.60;;;14.40;79.30;;;;;;5075346;28;20036;-72
2023/03/24 11:47:32;;;;;;;4.95;1.55;;;14.20;79.70;;;;;;5075323;28;20017;-73
2023/03/24 11:50:11;;;;;;;4.75;1.50;;;14.30;78.30;;;;;;5074357;28;20037;-73
2023/03/24 11:52:40;;;;;;;3.45;1.30;;;14.20;79.50;;;;;;5075309;28;20033;-72
2023/03/24 11:55:22;;;;;;;5.85;1.67;;;14.20;79.40;;;;;;5075215;28;20021;-72
2023/03/24 11:57:57;;;;;;;6.95;1.90;;;14.20;79.10;;;;;;5075187;28;20029;-72
2023/03/24 12:00:49;;;;;;;4.35;1.65;;;14.30;80.20;;;;;;5075143;28;20052;-73
2023/03/24 12:03:31;;;;;;;5.35;1.52;;;14.30;79.70;;;;;;5075122;28;20013;-73
2023/03/24 12:06:03;;;;;;;6.13;1.67;;;14.40;80.40;;;;;;5073979;28;20367;-72
2023/03/24 12:08:28;;;;;;;5.77;1.40;;;14.50;80.20;;;;;;5074946;28;20028;-73
2023/03/24 12:11:10;;;;;;;5.95;2.00;;;14.50;77.50;;;;;;5073874;28;20263;-73
2023/03/24 12:13:47;;;;;;;6.50;1.80;;;14.40;77.50;;;;;;5073876;28;20089;-73
2023/03/24 12:16:38;;;;;;;7.53;2.72;;;14.30;77.40;;;;;;5074809;28;20035;-73
2023/03/24 12:19:29;;;;;;;3.55;1.17;;;14.30;80.40;;;;;;5074806;28;20063;-72
2023/03/24 12:22:12;;;;;;;6.25;2.05;;;14.10;80.90;;;;;;5065636;28;20033;-72
2023/03/24 12:24:40;;;;;;;4.65;1.83;;;13.90;82.00;;;;;;5074781;28;20078;-73
2023/03/24 12:27:20;;;;;;;4.85;1.63;;;13.80;83.00;;;;;;5074448;28;20021;-72
2023/03/24 12:30:31;;;;;;;4.00;1.60;;;13.50;84.60;;;;;;5073483;28;20029;-73
2023/03/24 12:33:06;;;;;;;4.40;1.75;;;13.30;84.90;;;;;;5074333;28;20053;-74
2023/03/24 12:35:49;;;;;;;3.33;0.80;;;13.20;85.90;;;;;;5074422;28;20036;-73
2023/03/24 12:38:18;;;;;;;1.50;0.90;;;13.10;86.20;;;;;;5073419;28;20025;-73
2023/03/24 12:41:01;;;;;;;2.65;0.90;;;12.90;88.20;;;;;;5074170;28;20025;-72
2023/03/24 12:44:10;;;;;;;3.10;0.88;;;12.90;88.60;;;;;;5073843;28;20025;-73
2023/03/24 12:46:50;;;;;;;2.72;1.00;;;12.80;89.70;;;;;;5033025;28;20025;-73
2023/03/24 12:49:42;;;;;;;1.88;1.10;;;12.70;90.10;;;;;;5074105;28;20025;-73
2023/03/24 12:52:24;;;;;;;1.92;0.70;;;12.60;89.50;;;;;;5074079;28;20051;-71
2023/03/24 12:55:17;;;;;;;3.10;1.33;;;12.50;89.80;;;;;;5074092;28;20032;-73
2023/03/24 12:57:55;;;;;;;2.65;1.90;;;12.40;90.60;;;;;;5074064;28;20032;-73
2023/03/24 13:00:29;;;;;;;2.67;0.65;;;12.30;90.60;;;;;;5073829;28;20032;-71
2023/03/24 13:03:11;;;;;;;1.88;0.50;;;12.40;91.20;;;;;;5073911;28;20100;-72
2023/03/24 13:05:49;;;;;;;1.42;0.40;;;12.50;90.80;;;;;;5073872;28;20052;-72
2023/03/24 13:08:28;;;;;;;1.80;0.32;;;12.60;90.60;;;;;;5073820;28;20080;-72
2023/03/24 13:11:05;;;;;;;3.63;0.52;;;12.70;90.40;;;;;;5073742;28;20083;-72
2023/03/24 13:13:38;;;;;;;0.73;0.20;;;12.60;90.00;;;;;;5073749;28;20046;-72